Albuquerque International Sunport Airport
KABQ : now visible

Airfield :











YOU CAN JOIN US ON...

 
LOGIN :

Register | Disclaimer

   EN    FR    IT 

 









Legend :    VFR   Marginal VFR   IFR   Intensive IFR   Very Intensive IFR
Visi :
Ceiling :
>= 8 km
>= 3000ft
5 to 8 km
1000 to 3000 ft
1500m to 5 km
500 to 1000 ft
800 to 1500m
200 to 500 ft
< 800m
< 200 ft
Symbols :   Thunderstorms  Fog  Heavy snow  Heavy precipitations  Wind > 20 kt







- Airport Elevation : 5355 ft
- IATA code : ABQ


KABQ - Albuquerque International Sunport

CURRENT METAR :
  • 201052Z 24007KT 10SM BKN040 BKN050 OVC070 M04/M10 A2984 RMK AO2 SLP118 MTNS OBSC NE AND SE T10391100

EXPIRED METARs :
  • 200952Z 25008KT 10SM BKN040 OVC055 M03/M09 A2985 RMK AO2 SLP125 MTNS OBSC NE AND SE T10331094
  • 200852Z 27005KT 10SM FEW030 SCT050 OVC070 M03/M09 A2985 RMK AO2 SLP127 MTNS OBSC NE AND SE T10331089 50000
  • 200752Z 26010KT 10SM FEW040 BKN060 OVC080 M03/M09 A2986 RMK AO2 SLP131 MTN TOPS OBSC NE-SE T10331089

TAF KABQ
Valid from the 20 at 06:00 until the 21 at 06:00 UTC


200520Z 2006/2106 VRB06KT P6SM BKN110
FM201000 22006KT P6SM SCT120
FM201700 25011KT P6SM SCT120
FM210300 15009KT P6SM BKN120
KZAB FIR / North America



MET'MAP, your aeronautical weather chart ! - Copyright ORBIFLY December 2007 - Disclaimer

ORBIFLY MET'MAP TEAM :

Programming & Development : Alexandra Zaïnal
Concept & Development : Baudouin d'Aumeries
Co-Development & Prog : Marc-Olivier Méhu
Technical & hardware support : Manuel Goepfert

Contact : metmap@orbifly.com




SOURCES & CREDITS :

   NOAA       Earth
Advisory